sensor_id;sensor_type;location;lat;lon;timestamp;P1;durP1;ratioP1;P2;durP2;ratioP2
11064;SDS011;5585;52.530;7.320;2022-08-19T00:01:25;4.35;;;3.97;;
11064;SDS011;5585;52.530;7.320;2022-08-19T00:03:52;4.55;;;4.15;;
11064;SDS011;5585;52.530;7.320;2022-08-19T00:06:18;4.43;;;4.03;;
11064;SDS011;5585;52.530;7.320;2022-08-19T00:08:46;4.20;;;3.90;;
11064;SDS011;5585;52.530;7.320;2022-08-19T00:11:13;4.75;;;4.20;;
11064;SDS011;5585;52.530;7.320;2022-08-19T00:13:39;4.90;;;4.40;;
11064;SDS011;5585;52.530;7.320;2022-08-19T00:16:06;4.60;;;4.20;;
11064;SDS011;5585;52.530;7.320;2022-08-19T00:18:33;4.88;;;4.32;;
11064;SDS011;5585;52.530;7.320;2022-08-19T00:20:59;4.68;;;4.18;;
11064;SDS011;5585;52.530;7.320;2022-08-19T00:23:26;4.43;;;4.03;;
11064;SDS011;5585;52.530;7.320;2022-08-19T00:25:54;5.55;;;5.05;;
11064;SDS011;5585;52.530;7.320;2022-08-19T00:28:20;5.10;;;4.40;;
11064;SDS011;5585;52.530;7.320;2022-08-19T00:30:47;4.72;;;4.22;;
11064;SDS011;5585;52.530;7.320;2022-08-19T00:33:13;4.75;;;4.35;;
11064;SDS011;5585;52.530;7.320;2022-08-19T00:35:41;5.28;;;4.85;;
11064;SDS011;5585;52.530;7.320;2022-08-19T00:38:08;4.95;;;4.45;;
11064;SDS011;5585;52.530;7.320;2022-08-19T00:40:34;5.10;;;4.57;;
11064;SDS011;5585;52.530;7.320;2022-08-19T00:43:02;4.97;;;4.57;;
11064;SDS011;5585;52.530;7.320;2022-08-19T00:45:33;5.80;;;5.30;;
11064;SDS011;5585;52.530;7.320;2022-08-19T00:48:00;5.95;;;5.40;;
11064;SDS011;5585;52.530;7.320;2022-08-19T00:50:29;5.85;;;5.30;;
11064;SDS011;5585;52.530;7.320;2022-08-19T00:52:56;5.75;;;5.22;;
11064;SDS011;5585;52.530;7.320;2022-08-19T00:55:26;5.97;;;5.40;;
11064;SDS011;5585;52.530;7.320;2022-08-19T00:57:55;5.88;;;5.35;;
11064;SDS011;5585;52.530;7.320;2022-08-19T01:00:24;5.88;;;5.28;;
11064;SDS011;5585;52.530;7.320;2022-08-19T01:02:51;6.38;;;5.80;;
11064;SDS011;5585;52.530;7.320;2022-08-19T01:05:20;7.80;;;6.95;;
11064;SDS011;5585;52.530;7.320;2022-08-19T01:07:48;6.80;;;6.10;;
11064;SDS011;5585;52.530;7.320;2022-08-19T01:10:16;6.20;;;5.70;;
11064;SDS011;5585;52.530;7.320;2022-08-19T01:12:44;7.63;;;6.93;;
11064;SDS011;5585;52.530;7.320;2022-08-19T01:15:12;6.35;;;5.78;;
11064;SDS011;5585;52.530;7.320;2022-08-19T01:17:42;7.13;;;6.40;;
11064;SDS011;5585;52.530;7.320;2022-08-19T01:20:10;8.00;;;7.13;;
11064;SDS011;5585;52.530;7.320;2022-08-19T01:22:39;6.75;;;6.15;;
11064;SDS011;5585;52.530;7.320;2022-08-19T01:25:09;7.72;;;6.95;;
11064;SDS011;5585;52.530;7.320;2022-08-19T01:27:39;8.25;;;6.90;;
11064;SDS011;5585;52.530;7.320;2022-08-19T01:30:07;6.88;;;6.30;;
11064;SDS011;5585;52.530;7.320;2022-08-19T01:32:33;7.88;;;7.10;;
11064;SDS011;5585;52.530;7.320;2022-08-19T01:35:00;7.60;;;6.90;;
11064;SDS011;5585;52.530;7.320;2022-08-19T01:37:27;8.27;;;7.47;;
11064;SDS011;5585;52.530;7.320;2022-08-19T01:39:56;7.47;;;6.78;;
11064;SDS011;5585;52.530;7.320;2022-08-19T01:42:23;7.25;;;6.65;;
11064;SDS011;5585;52.530;7.320;2022-08-19T01:44:49;8.05;;;7.35;;
11064;SDS011;5585;52.530;7.320;2022-08-19T01:47:16;7.80;;;7.10;;
11064;SDS011;5585;52.530;7.320;2022-08-19T01:49:42;7.97;;;7.35;;
11064;SDS011;5585;52.530;7.320;2022-08-19T01:52:09;7.40;;;6.80;;
11064;SDS011;5585;52.530;7.320;2022-08-19T01:54:35;7.43;;;6.80;;
11064;SDS011;5585;52.530;7.320;2022-08-19T01:57:05;7.72;;;7.00;;
11064;SDS011;5585;52.530;7.320;2022-08-19T01:59:32;8.15;;;7.35;;
11064;SDS011;5585;52.530;7.320;2022-08-19T02:01:58;8.38;;;7.57;;
11064;SDS011;5585;52.530;7.320;2022-08-19T02:04:25;7.80;;;7.10;;
11064;SDS011;5585;52.530;7.320;2022-08-19T02:06:52;8.02;;;7.32;;
11064;SDS011;5585;52.530;7.320;2022-08-19T02:09:18;8.50;;;7.72;;
11064;SDS011;5585;52.530;7.320;2022-08-19T02:11:45;8.23;;;7.40;;
11064;SDS011;5585;52.530;7.320;2022-08-19T02:14:13;8.45;;;6.97;;
11064;SDS011;5585;52.530;7.320;2022-08-19T02:16:39;8.10;;;7.40;;
11064;SDS011;5585;52.530;7.320;2022-08-19T02:19:06;7.95;;;7.25;;
11064;SDS011;5585;52.530;7.320;2022-08-19T02:21:32;7.25;;;6.63;;
11064;SDS011;5585;52.530;7.320;2022-08-19T02:23:59;8.23;;;7.15;;
11064;SDS011;5585;52.530;7.320;2022-08-19T02:26:26;7.88;;;7.00;;
11064;SDS011;5585;52.530;7.320;2022-08-19T02:28:53;7.30;;;6.60;;
11064;SDS011;5585;52.530;7.320;2022-08-19T02:31:22;7.65;;;6.95;;
11064;SDS011;5585;52.530;7.320;2022-08-19T02:33:49;8.00;;;7.25;;
11064;SDS011;5585;52.530;7.320;2022-08-19T02:36:17;8.02;;;7.07;;
11064;SDS011;5585;52.530;7.320;2022-08-19T02:38:44;8.15;;;7.35;;
11064;SDS011;5585;52.530;7.320;2022-08-19T02:41:12;7.95;;;7.25;;
11064;SDS011;5585;52.530;7.320;2022-08-19T02:43:39;8.38;;;7.65;;
11064;SDS011;5585;52.530;7.320;2022-08-19T02:46:10;7.97;;;7.18;;
11064;SDS011;5585;52.530;7.320;2022-08-19T02:48:38;7.97;;;7.20;;
11064;SDS011;5585;52.530;7.320;2022-08-19T02:51:05;7.55;;;6.85;;
11064;SDS011;5585;52.530;7.320;2022-08-19T02:53:31;8.93;;;7.30;;
11064;SDS011;5585;52.530;7.320;2022-08-19T02:55:58;7.97;;;7.22;;
11064;SDS011;5585;52.530;7.320;2022-08-19T02:58:24;7.70;;;6.90;;
11064;SDS011;5585;52.530;7.320;2022-08-19T03:00:52;7.75;;;7.05;;
11064;SDS011;5585;52.530;7.320;2022-08-19T03:03:19;7.32;;;6.63;;
11064;SDS011;5585;52.530;7.320;2022-08-19T03:05:47;6.97;;;6.30;;
11064;SDS011;5585;52.530;7.320;2022-08-19T03:08:14;7.20;;;6.50;;
11064;SDS011;5585;52.530;7.320;2022-08-19T03:10:41;7.68;;;7.07;;
11064;SDS011;5585;52.530;7.320;2022-08-19T03:13:09;7.68;;;6.97;;
11064;SDS011;5585;52.530;7.320;2022-08-19T03:15:38;6.95;;;6.35;;
11064;SDS011;5585;52.530;7.320;2022-08-19T03:18:05;7.13;;;6.45;;
11064;SDS011;5585;52.530;7.320;2022-08-19T03:20:31;7.80;;;7.10;;
11064;SDS011;5585;52.530;7.320;2022-08-19T03:22:59;8.55;;;6.40;;
11064;SDS011;5585;52.530;7.320;2022-08-19T03:25:26;7.53;;;6.93;;
11064;SDS011;5585;52.530;7.320;2022-08-19T03:27:53;6.95;;;6.25;;
11064;SDS011;5585;52.530;7.320;2022-08-19T03:30:19;6.90;;;6.30;;
11064;SDS011;5585;52.530;7.320;2022-08-19T03:32:46;6.47;;;5.90;;
11064;SDS011;5585;52.530;7.320;2022-08-19T03:35:12;6.43;;;5.82;;
11064;SDS011;5585;52.530;7.320;2022-08-19T03:37:39;7.00;;;6.40;;
11064;SDS011;5585;52.530;7.320;2022-08-19T03:40:08;6.47;;;5.90;;
11064;SDS011;5585;52.530;7.320;2022-08-19T03:42:35;6.20;;;5.70;;
11064;SDS011;5585;52.530;7.320;2022-08-19T03:45:02;6.22;;;5.18;;
11064;SDS011;5585;52.530;7.320;2022-08-19T03:47:29;5.97;;;5.47;;
11064;SDS011;5585;52.530;7.320;2022-08-19T03:49:55;6.25;;;5.75;;
11064;SDS011;5585;52.530;7.320;2022-08-19T03:52:22;7.43;;;6.72;;
11064;SDS011;5585;52.530;7.320;2022-08-19T03:54:48;7.78;;;7.07;;
11064;SDS011;5585;52.530;7.320;2022-08-19T03:57:16;8.38;;;7.45;;
11064;SDS011;5585;52.530;7.320;2022-08-19T03:59:42;8.10;;;7.40;;
11064;SDS011;5585;52.530;7.320;2022-08-19T04:02:10;8.40;;;7.70;;
11064;SDS011;5585;52.530;7.320;2022-08-19T04:04:37;7.55;;;6.85;;
11064;SDS011;5585;52.530;7.320;2022-08-19T04:07:04;9.07;;;8.18;;
11064;SDS011;5585;52.530;7.320;2022-08-19T04:09:30;8.35;;;7.55;;
11064;SDS011;5585;52.530;7.320;2022-08-19T04:11:57;9.18;;;8.30;;
11064;SDS011;5585;52.530;7.320;2022-08-19T04:14:26;8.68;;;7.88;;
11064;SDS011;5585;52.530;7.320;2022-08-19T04:16:54;8.77;;;7.78;;
11064;SDS011;5585;52.530;7.320;2022-08-19T04:19:20;9.23;;;8.02;;
11064;SDS011;5585;52.530;7.320;2022-08-19T04:21:53;8.48;;;7.78;;
11064;SDS011;5585;52.530;7.320;2022-08-19T04:24:20;8.30;;;7.55;;
11064;SDS011;5585;52.530;7.320;2022-08-19T04:26:47;8.65;;;7.72;;
11064;SDS011;5585;52.530;7.320;2022-08-19T04:29:16;8.88;;;7.95;;
11064;SDS011;5585;52.530;7.320;2022-08-19T04:31:45;8.32;;;7.53;;
11064;SDS011;5585;52.530;7.320;2022-08-19T04:34:12;8.40;;;7.63;;
11064;SDS011;5585;52.530;7.320;2022-08-19T04:36:40;8.02;;;7.22;;
11064;SDS011;5585;52.530;7.320;2022-08-19T04:39:07;8.70;;;7.82;;
11064;SDS011;5585;52.530;7.320;2022-08-19T04:41:34;8.93;;;8.13;;
11064;SDS011;5585;52.530;7.320;2022-08-19T04:44:18;9.45;;;8.55;;
11064;SDS011;5585;52.530;7.320;2022-08-19T04:46:48;8.70;;;7.88;;
11064;SDS011;5585;52.530;7.320;2022-08-19T04:49:15;8.80;;;7.97;;
11064;SDS011;5585;52.530;7.320;2022-08-19T04:51:43;8.63;;;7.78;;
11064;SDS011;5585;52.530;7.320;2022-08-19T04:54:09;9.32;;;8.43;;
11064;SDS011;5585;52.530;7.320;2022-08-19T04:56:36;9.75;;;8.75;;
11064;SDS011;5585;52.530;7.320;2022-08-19T04:59:02;9.15;;;8.25;;
11064;SDS011;5585;52.530;7.320;2022-08-19T05:01:30;10.27;;;9.27;;
11064;SDS011;5585;52.530;7.320;2022-08-19T05:03:58;9.88;;;8.90;;
11064;SDS011;5585;52.530;7.320;2022-08-19T05:06:25;10.25;;;9.23;;
11064;SDS011;5585;52.530;7.320;2022-08-19T05:08:53;9.95;;;9.05;;
11064;SDS011;5585;52.530;7.320;2022-08-19T05:11:24;9.30;;;8.35;;
11064;SDS011;5585;52.530;7.320;2022-08-19T05:13:50;11.45;;;9.82;;
11064;SDS011;5585;52.530;7.320;2022-08-19T05:16:18;10.57;;;9.57;;
11064;SDS011;5585;52.530;7.320;2022-08-19T05:18:45;11.25;;;10.07;;
11064;SDS011;5585;52.530;7.320;2022-08-19T05:21:30;10.85;;;9.77;;
11064;SDS011;5585;52.530;7.320;2022-08-19T05:24:14;13.65;;;10.98;;
11064;SDS011;5585;52.530;7.320;2022-08-19T05:26:42;12.30;;;11.10;;
11064;SDS011;5585;52.530;7.320;2022-08-19T05:29:11;11.77;;;10.63;;
11064;SDS011;5585;52.530;7.320;2022-08-19T05:31:38;12.10;;;10.90;;
11064;SDS011;5585;52.530;7.320;2022-08-19T05:34:05;11.18;;;10.07;;
11064;SDS011;5585;52.530;7.320;2022-08-19T05:36:35;12.32;;;11.18;;
11064;SDS011;5585;52.530;7.320;2022-08-19T05:39:04;12.52;;;11.35;;
11064;SDS011;5585;52.530;7.320;2022-08-19T05:41:30;13.00;;;11.57;;
11064;SDS011;5585;52.530;7.320;2022-08-19T05:43:57;11.95;;;10.75;;
11064;SDS011;5585;52.530;7.320;2022-08-19T05:46:23;11.30;;;10.23;;
11064;SDS011;5585;52.530;7.320;2022-08-19T05:48:50;11.48;;;10.38;;
11064;SDS011;5585;52.530;7.320;2022-08-19T05:51:17;11.88;;;10.70;;
11064;SDS011;5585;52.530;7.320;2022-08-19T05:53:45;11.80;;;10.60;;
11064;SDS011;5585;52.530;7.320;2022-08-19T05:56:12;10.90;;;9.80;;
11064;SDS011;5585;52.530;7.320;2022-08-19T05:58:39;10.75;;;9.75;;
11064;SDS011;5585;52.530;7.320;2022-08-19T06:01:09;10.75;;;9.73;;
11064;SDS011;5585;52.530;7.320;2022-08-19T06:03:36;10.63;;;9.35;;
11064;SDS011;5585;52.530;7.320;2022-08-19T06:06:04;9.60;;;8.68;;
11064;SDS011;5585;52.530;7.320;2022-08-19T06:08:32;10.45;;;9.38;;
11064;SDS011;5585;52.530;7.320;2022-08-19T06:11:13;10.68;;;9.35;;
11064;SDS011;5585;52.530;7.320;2022-08-19T06:13:40;9.57;;;8.65;;
11064;SDS011;5585;52.530;7.320;2022-08-19T06:16:06;8.93;;;8.02;;
11064;SDS011;5585;52.530;7.320;2022-08-19T06:18:33;11.18;;;7.88;;
11064;SDS011;5585;52.530;7.320;2022-08-19T06:20:59;10.43;;;8.23;;
11064;SDS011;5585;52.530;7.320;2022-08-19T06:23:29;8.93;;;8.02;;
11064;SDS011;5585;52.530;7.320;2022-08-19T06:25:56;11.77;;;10.57;;
11064;SDS011;5585;52.530;7.320;2022-08-19T06:28:24;10.98;;;9.70;;
11064;SDS011;5585;52.530;7.320;2022-08-19T06:30:50;10.32;;;9.43;;
11064;SDS011;5585;52.530;7.320;2022-08-19T06:33:16;10.88;;;9.77;;
11064;SDS011;5585;52.530;7.320;2022-08-19T06:35:43;11.32;;;9.73;;
11064;SDS011;5585;52.530;7.320;2022-08-19T06:38:09;11.23;;;9.35;;
11064;SDS011;5585;52.530;7.320;2022-08-19T06:40:36;10.75;;;9.68;;
11064;SDS011;5585;52.530;7.320;2022-08-19T06:43:02;9.57;;;8.52;;
11064;SDS011;5585;52.530;7.320;2022-08-19T06:45:30;9.45;;;7.60;;
11064;SDS011;5585;52.530;7.320;2022-08-19T06:47:57;8.70;;;7.88;;
11064;SDS011;5585;52.530;7.320;2022-08-19T06:50:23;7.85;;;6.68;;
11064;SDS011;5585;52.530;7.320;2022-08-19T06:52:50;7.82;;;6.72;;
11064;SDS011;5585;52.530;7.320;2022-08-19T06:55:17;7.45;;;6.72;;
11064;SDS011;5585;52.530;7.320;2022-08-19T06:57:43;6.95;;;6.25;;
11064;SDS011;5585;52.530;7.320;2022-08-19T07:00:11;6.32;;;5.75;;
11064;SDS011;5585;52.530;7.320;2022-08-19T07:02:40;5.80;;;5.22;;
11064;SDS011;5585;52.530;7.320;2022-08-19T07:05:06;7.30;;;6.60;;
11064;SDS011;5585;52.530;7.320;2022-08-19T07:07:33;5.65;;;5.15;;
11064;SDS011;5585;52.530;7.320;2022-08-19T07:10:00;6.10;;;5.47;;
11064;SDS011;5585;52.530;7.320;2022-08-19T07:12:27;6.28;;;5.68;;
11064;SDS011;5585;52.530;7.320;2022-08-19T07:14:56;5.90;;;5.30;;
11064;SDS011;5585;52.530;7.320;2022-08-19T07:17:23;6.05;;;5.05;;
11064;SDS011;5585;52.530;7.320;2022-08-19T07:19:51;7.05;;;5.57;;
11064;SDS011;5585;52.530;7.320;2022-08-19T07:22:18;6.60;;;5.75;;
11064;SDS011;5585;52.530;7.320;2022-08-19T07:24:47;8.35;;;7.00;;
11064;SDS011;5585;52.530;7.320;2022-08-19T07:27:14;7.32;;;6.55;;
11064;SDS011;5585;52.530;7.320;2022-08-19T07:29:41;7.03;;;6.13;;
11064;SDS011;5585;52.530;7.320;2022-08-19T07:32:07;7.47;;;6.00;;
11064;SDS011;5585;52.530;7.320;2022-08-19T07:34:34;7.30;;;6.40;;
11064;SDS011;5585;52.530;7.320;2022-08-19T07:37:04;9.85;;;8.57;;
11064;SDS011;5585;52.530;7.320;2022-08-19T07:39:32;7.90;;;7.10;;
11064;SDS011;5585;52.530;7.320;2022-08-19T07:41:59;8.55;;;7.07;;
11064;SDS011;5585;52.530;7.320;2022-08-19T07:44:27;7.25;;;6.55;;
11064;SDS011;5585;52.530;7.320;2022-08-19T07:46:54;7.57;;;6.85;;
11064;SDS011;5585;52.530;7.320;2022-08-19T07:49:22;13.63;;;10.27;;
11064;SDS011;5585;52.530;7.320;2022-08-19T07:51:49;7.68;;;7.00;;
11064;SDS011;5585;52.530;7.320;2022-08-19T07:54:17;8.45;;;7.55;;
11064;SDS011;5585;52.530;7.320;2022-08-19T07:56:45;9.10;;;8.15;;
11064;SDS011;5585;52.530;7.320;2022-08-19T07:59:12;9.48;;;7.90;;
11064;SDS011;5585;52.530;7.320;2022-08-19T08:01:38;9.77;;;8.48;;
11064;SDS011;5585;52.530;7.320;2022-08-19T08:04:05;8.80;;;7.97;;
11064;SDS011;5585;52.530;7.320;2022-08-19T08:06:50;7.57;;;6.85;;
11064;SDS011;5585;52.530;7.320;2022-08-19T08:09:36;9.60;;;8.60;;
11064;SDS011;5585;52.530;7.320;2022-08-19T08:12:04;8.15;;;7.35;;
11064;SDS011;5585;52.530;7.320;2022-08-19T08:14:32;10.45;;;8.95;;
11064;SDS011;5585;52.530;7.320;2022-08-19T08:17:00;12.80;;;9.80;;
11064;SDS011;5585;52.530;7.320;2022-08-19T08:19:27;9.48;;;8.55;;
11064;SDS011;5585;52.530;7.320;2022-08-19T08:21:54;9.25;;;8.35;;
11064;SDS011;5585;52.530;7.320;2022-08-19T08:24:21;8.00;;;7.20;;
11064;SDS011;5585;52.530;7.320;2022-08-19T08:26:48;6.72;;;6.13;;
11064;SDS011;5585;52.530;7.320;2022-08-19T08:29:15;7.82;;;6.68;;
11064;SDS011;5585;52.530;7.320;2022-08-19T08:31:42;6.18;;;5.57;;
11064;SDS011;5585;52.530;7.320;2022-08-19T08:34:10;7.15;;;6.55;;
11064;SDS011;5585;52.530;7.320;2022-08-19T08:36:37;6.30;;;5.70;;
11064;SDS011;5585;52.530;7.320;2022-08-19T08:39:06;7.13;;;6.43;;
11064;SDS011;5585;52.530;7.320;2022-08-19T08:41:35;7.20;;;6.50;;
11064;SDS011;5585;52.530;7.320;2022-08-19T08:44:04;6.10;;;5.60;;
11064;SDS011;5585;52.530;7.320;2022-08-19T08:46:34;6.03;;;5.53;;
11064;SDS011;5585;52.530;7.320;2022-08-19T08:49:04;6.18;;;5.57;;
11064;SDS011;5585;52.530;7.320;2022-08-19T08:51:34;6.55;;;5.95;;
11064;SDS011;5585;52.530;7.320;2022-08-19T08:54:02;5.70;;;5.20;;
11064;SDS011;5585;52.530;7.320;2022-08-19T08:56:31;5.40;;;4.90;;
11064;SDS011;5585;52.530;7.320;2022-08-19T08:58:59;5.57;;;4.40;;
11064;SDS011;5585;52.530;7.320;2022-08-19T09:01:28;5.00;;;4.50;;
11064;SDS011;5585;52.530;7.320;2022-08-19T09:03:55;7.38;;;6.68;;
11064;SDS011;5585;52.530;7.320;2022-08-19T09:06:23;5.93;;;5.43;;
11064;SDS011;5585;52.530;7.320;2022-08-19T09:08:54;5.20;;;4.80;;
11064;SDS011;5585;52.530;7.320;2022-08-19T09:11:24;6.00;;;4.30;;
11064;SDS011;5585;52.530;7.320;2022-08-19T09:13:57;4.30;;;3.83;;
11064;SDS011;5585;52.530;7.320;2022-08-19T09:16:29;4.78;;;3.78;;
11064;SDS011;5585;52.530;7.320;2022-08-19T09:19:05;4.90;;;3.85;;
11064;SDS011;5585;52.530;7.320;2022-08-19T09:21:31;5.57;;;4.47;;
11064;SDS011;5585;52.530;7.320;2022-08-19T09:23:59;7.93;;;3.80;;
11064;SDS011;5585;52.530;7.320;2022-08-19T09:26:26;4.20;;;3.80;;
11064;SDS011;5585;52.530;7.320;2022-08-19T09:28:53;4.93;;;4.00;;
11064;SDS011;5585;52.530;7.320;2022-08-19T09:31:20;5.65;;;4.85;;
11064;SDS011;5585;52.530;7.320;2022-08-19T09:33:48;4.10;;;3.63;;
11064;SDS011;5585;52.530;7.320;2022-08-19T09:36:16;3.63;;;3.33;;
11064;SDS011;5585;52.530;7.320;2022-08-19T09:38:43;5.65;;;4.25;;
11064;SDS011;5585;52.530;7.320;2022-08-19T09:41:11;3.60;;;3.30;;
11064;SDS011;5585;52.530;7.320;2022-08-19T09:43:38;4.13;;;3.58;;
11064;SDS011;5585;52.530;7.320;2022-08-19T09:46:05;4.55;;;3.10;;
11064;SDS011;5585;52.530;7.320;2022-08-19T09:48:34;5.65;;;3.40;;
11064;SDS011;5585;52.530;7.320;2022-08-19T09:51:05;3.83;;;2.92;;
11064;SDS011;5585;52.530;7.320;2022-08-19T09:53:33;5.53;;;3.17;;
11064;SDS011;5585;52.530;7.320;2022-08-19T09:55:59;3.78;;;3.30;;
11064;SDS011;5585;52.530;7.320;2022-08-19T09:58:26;3.63;;;3.22;;
11064;SDS011;5585;52.530;7.320;2022-08-19T10:00:54;4.45;;;3.10;;
11064;SDS011;5585;52.530;7.320;2022-08-19T10:03:20;3.35;;;2.70;;
11064;SDS011;5585;52.530;7.320;2022-08-19T10:05:47;3.15;;;2.95;;
11064;SDS011;5585;52.530;7.320;2022-08-19T10:08:20;5.10;;;3.85;;
11064;SDS011;5585;52.530;7.320;2022-08-19T10:10:47;3.70;;;3.40;;
11064;SDS011;5585;52.530;7.320;2022-08-19T10:13:14;3.17;;;2.70;;
11064;SDS011;5585;52.530;7.320;2022-08-19T10:15:41;2.88;;;2.67;;
11064;SDS011;5585;52.530;7.320;2022-08-19T10:18:08;2.83;;;2.63;;
11064;SDS011;5585;52.530;7.320;2022-08-19T10:20:34;3.83;;;3.00;;
11064;SDS011;5585;52.530;7.320;2022-08-19T10:23:02;2.75;;;2.55;;
11064;SDS011;5585;52.530;7.320;2022-08-19T10:25:30;3.58;;;3.08;;
11064;SDS011;5585;52.530;7.320;2022-08-19T10:27:58;2.70;;;2.50;;
11064;SDS011;5585;52.530;7.320;2022-08-19T10:30:25;3.08;;;2.78;;
11064;SDS011;5585;52.530;7.320;2022-08-19T10:32:51;2.88;;;2.30;;
11064;SDS011;5585;52.530;7.320;2022-08-19T10:35:18;2.50;;;2.30;;
11064;SDS011;5585;52.530;7.320;2022-08-19T10:37:44;2.47;;;2.10;;
11064;SDS011;5585;52.530;7.320;2022-08-19T10:40:11;2.63;;;2.42;;
11064;SDS011;5585;52.530;7.320;2022-08-19T10:42:39;2.42;;;1.88;;
11064;SDS011;5585;52.530;7.320;2022-08-19T10:45:06;2.80;;;2.50;;
11064;SDS011;5585;52.530;7.320;2022-08-19T10:47:34;2.40;;;2.20;;
11064;SDS011;5585;52.530;7.320;2022-08-19T10:50:01;2.10;;;2.00;;
11064;SDS011;5585;52.530;7.320;2022-08-19T10:52:45;2.95;;;2.65;;
11064;SDS011;5585;52.530;7.320;2022-08-19T10:55:12;3.13;;;2.83;;
11064;SDS011;5585;52.530;7.320;2022-08-19T10:57:57;3.35;;;3.05;;
11064;SDS011;5585;52.530;7.320;2022-08-19T11:00:24;2.63;;;2.42;;
11064;SDS011;5585;52.530;7.320;2022-08-19T11:02:51;4.07;;;3.63;;
11064;SDS011;5585;52.530;7.320;2022-08-19T11:05:17;3.15;;;2.85;;
11064;SDS011;5585;52.530;7.320;2022-08-19T11:07:44;4.40;;;3.67;;
11064;SDS011;5585;52.530;7.320;2022-08-19T11:10:12;3.25;;;2.78;;
11064;SDS011;5585;52.530;7.320;2022-08-19T11:12:39;2.80;;;2.60;;
11064;SDS011;5585;52.530;7.320;2022-08-19T11:15:09;2.70;;;2.30;;
11064;SDS011;5585;52.530;7.320;2022-08-19T11:17:36;2.83;;;2.63;;
11064;SDS011;5585;52.530;7.320;2022-08-19T11:20:06;3.10;;;2.88;;
11064;SDS011;5585;52.530;7.320;2022-08-19T11:22:33;2.63;;;2.42;;
11064;SDS011;5585;52.530;7.320;2022-08-19T11:24:59;2.90;;;2.70;;
11064;SDS011;5585;52.530;7.320;2022-08-19T11:27:27;2.85;;;2.65;;
11064;SDS011;5585;52.530;7.320;2022-08-19T11:29:54;2.70;;;2.50;;
11064;SDS011;5585;52.530;7.320;2022-08-19T11:32:22;3.17;;;2.88;;
11064;SDS011;5585;52.530;7.320;2022-08-19T11:34:48;3.53;;;3.22;;
11064;SDS011;5585;52.530;7.320;2022-08-19T11:37:14;3.95;;;3.58;;
11064;SDS011;5585;52.530;7.320;2022-08-19T11:39:41;3.78;;;3.47;;
11064;SDS011;5585;52.530;7.320;2022-08-19T11:42:07;3.70;;;3.45;;
11064;SDS011;5585;52.530;7.320;2022-08-19T11:44:48;3.80;;;3.20;;
11064;SDS011;5585;52.530;7.320;2022-08-19T11:47:14;3.60;;;3.30;;
11064;SDS011;5585;52.530;7.320;2022-08-19T11:49:42;3.25;;;3.05;;
11064;SDS011;5585;52.530;7.320;2022-08-19T11:52:09;3.30;;;3.00;;
11064;SDS011;5585;52.530;7.320;2022-08-19T11:54:35;3.28;;;3.00;;
11064;SDS011;5585;52.530;7.320;2022-08-19T11:57:02;3.45;;;3.15;;
11064;SDS011;5585;52.530;7.320;2022-08-19T11:59:29;3.35;;;3.05;;
11064;SDS011;5585;52.530;7.320;2022-08-19T12:01:55;3.38;;;3.05;;
11064;SDS011;5585;52.530;7.320;2022-08-19T12:04:22;4.00;;;3.70;;
11064;SDS011;5585;52.530;7.320;2022-08-19T12:06:50;3.58;;;3.28;;
11064;SDS011;5585;52.530;7.320;2022-08-19T12:09:17;3.20;;;3.00;;
11064;SDS011;5585;52.530;7.320;2022-08-19T12:11:43;3.95;;;3.63;;
11064;SDS011;5585;52.530;7.320;2022-08-19T12:14:12;3.80;;;3.45;;
11064;SDS011;5585;52.530;7.320;2022-08-19T12:16:39;3.78;;;3.40;;
11064;SDS011;5585;52.530;7.320;2022-08-19T12:19:06;3.53;;;3.22;;
11064;SDS011;5585;52.530;7.320;2022-08-19T12:21:33;3.78;;;3.47;;
11064;SDS011;5585;52.530;7.320;2022-08-19T12:24:03;4.20;;;3.85;;
11064;SDS011;5585;52.530;7.320;2022-08-19T12:26:30;3.50;;;3.20;;
11064;SDS011;5585;52.530;7.320;2022-08-19T12:28:57;3.88;;;3.50;;
11064;SDS011;5585;52.530;7.320;2022-08-19T12:31:24;4.53;;;3.72;;
11064;SDS011;5585;52.530;7.320;2022-08-19T12:33:51;3.75;;;3.45;;
11064;SDS011;5585;52.530;7.320;2022-08-19T12:36:18;4.05;;;3.75;;
11064;SDS011;5585;52.530;7.320;2022-08-19T12:38:44;5.03;;;3.40;;
11064;SDS011;5585;52.530;7.320;2022-08-19T12:41:14;3.88;;;3.58;;
11064;SDS011;5585;52.530;7.320;2022-08-19T12:43:43;4.20;;;3.90;;
11064;SDS011;5585;52.530;7.320;2022-08-19T12:46:10;3.53;;;3.30;;
11064;SDS011;5585;52.530;7.320;2022-08-19T12:48:37;3.70;;;3.40;;
11064;SDS011;5585;52.530;7.320;2022-08-19T12:51:05;3.85;;;3.53;;
11064;SDS011;5585;52.530;7.320;2022-08-19T12:53:32;4.15;;;3.85;;
11064;SDS011;5585;52.530;7.320;2022-08-19T12:55:59;4.15;;;3.80;;
11064;SDS011;5585;52.530;7.320;2022-08-19T12:58:27;4.20;;;3.90;;
11064;SDS011;5585;52.530;7.320;2022-08-19T13:00:54;4.07;;;3.65;;
11064;SDS011;5585;52.530;7.320;2022-08-19T13:03:21;3.95;;;3.65;;
11064;SDS011;5585;52.530;7.320;2022-08-19T13:05:54;3.67;;;3.38;;
11064;SDS011;5585;52.530;7.320;2022-08-19T13:08:20;3.80;;;3.50;;
11064;SDS011;5585;52.530;7.320;2022-08-19T13:10:47;4.05;;;3.75;;
11064;SDS011;5585;52.530;7.320;2022-08-19T13:13:13;3.55;;;3.28;;
11064;SDS011;5585;52.530;7.320;2022-08-19T13:15:41;3.47;;;3.25;;
11064;SDS011;5585;52.530;7.320;2022-08-19T13:18:10;3.78;;;3.47;;
11064;SDS011;5585;52.530;7.320;2022-08-19T13:20:37;4.20;;;3.90;;
11064;SDS011;5585;52.530;7.320;2022-08-19T13:23:05;5.88;;;4.22;;
11064;SDS011;5585;52.530;7.320;2022-08-19T13:25:32;4.38;;;4.05;;
11064;SDS011;5585;52.530;7.320;2022-08-19T13:27:58;3.92;;;3.63;;
11064;SDS011;5585;52.530;7.320;2022-08-19T13:30:25;4.03;;;3.67;;
11064;SDS011;5585;52.530;7.320;2022-08-19T13:33:11;3.63;;;3.33;;
11064;SDS011;5585;52.530;7.320;2022-08-19T13:35:39;4.72;;;3.95;;
11064;SDS011;5585;52.530;7.320;2022-08-19T13:38:05;3.60;;;3.35;;
11064;SDS011;5585;52.530;7.320;2022-08-19T13:40:32;3.45;;;3.15;;
11064;SDS011;5585;52.530;7.320;2022-08-19T13:43:00;4.53;;;3.38;;
11064;SDS011;5585;52.530;7.320;2022-08-19T13:45:27;4.15;;;3.80;;
11064;SDS011;5585;52.530;7.320;2022-08-19T13:47:54;4.43;;;3.90;;
11064;SDS011;5585;52.530;7.320;2022-08-19T13:50:23;6.55;;;4.20;;
11064;SDS011;5585;52.530;7.320;2022-08-19T13:52:51;4.25;;;3.85;;
11064;SDS011;5585;52.530;7.320;2022-08-19T13:55:18;5.05;;;4.20;;
11064;SDS011;5585;52.530;7.320;2022-08-19T13:57:44;4.53;;;4.10;;
11064;SDS011;5585;52.530;7.320;2022-08-19T14:00:13;4.43;;;4.07;;
11064;SDS011;5585;52.530;7.320;2022-08-19T14:02:39;4.30;;;4.00;;
11064;SDS011;5585;52.530;7.320;2022-08-19T14:05:08;5.18;;;4.47;;
11064;SDS011;5585;52.530;7.320;2022-08-19T14:07:36;4.60;;;4.20;;
11064;SDS011;5585;52.530;7.320;2022-08-19T14:10:04;4.60;;;4.20;;
11064;SDS011;5585;52.530;7.320;2022-08-19T14:12:31;3.70;;;3.40;;
11064;SDS011;5585;52.530;7.320;2022-08-19T14:14:58;5.13;;;4.60;;
11064;SDS011;5585;52.530;7.320;2022-08-19T14:17:24;5.35;;;4.85;;
11064;SDS011;5585;52.530;7.320;2022-08-19T14:19:55;4.72;;;4.25;;
11064;SDS011;5585;52.530;7.320;2022-08-19T14:22:22;5.40;;;4.47;;
11064;SDS011;5585;52.530;7.320;2022-08-19T14:24:49;4.63;;;4.25;;
11064;SDS011;5585;52.530;7.320;2022-08-19T14:27:16;5.15;;;4.75;;
11064;SDS011;5585;52.530;7.320;2022-08-19T14:29:42;4.90;;;4.50;;
11064;SDS011;5585;52.530;7.320;2022-08-19T14:32:09;4.68;;;4.28;;
11064;SDS011;5585;52.530;7.320;2022-08-19T14:34:36;5.03;;;4.63;;
11064;SDS011;5585;52.530;7.320;2022-08-19T14:37:03;5.57;;;5.07;;
11064;SDS011;5585;52.530;7.320;2022-08-19T14:39:31;5.65;;;5.15;;
11064;SDS011;5585;52.530;7.320;2022-08-19T14:41:58;6.03;;;5.53;;
11064;SDS011;5585;52.530;7.320;2022-08-19T14:44:25;8.10;;;5.93;;
11064;SDS011;5585;52.530;7.320;2022-08-19T14:46:51;5.40;;;4.90;;
11064;SDS011;5585;52.530;7.320;2022-08-19T14:49:18;6.65;;;6.05;;
11064;SDS011;5585;52.530;7.320;2022-08-19T14:51:44;6.13;;;5.55;;
11064;SDS011;5585;52.530;7.320;2022-08-19T14:54:12;6.43;;;5.85;;
11064;SDS011;5585;52.530;7.320;2022-08-19T14:56:39;7.88;;;6.93;;
11064;SDS011;5585;52.530;7.320;2022-08-19T14:59:07;5.55;;;5.15;;
11064;SDS011;5585;52.530;7.320;2022-08-19T15:01:33;6.05;;;5.57;;
11064;SDS011;5585;52.530;7.320;2022-08-19T15:04:00;5.97;;;5.47;;